• Join FlightAware (Why Join?)
  • Login
  • US Flag 
08:44AM EDT


 

Airport Tracker/Info


-or-


 

Live Flight TrackerFlight Track Log ✈ KAP927 ✈ 04-Jul-2013 ✈ KALB - KBOS

Flight Track Log - Related Links

Times and Time Zones

All times are in EDT time to prevent confusion due to time zone crossing. See the KAP927 flight status page for this flight to view local times or setup timezone preferences in your user account.

Time Position Orientation Groundspeed Altitude Reporting Facility
EDT Latitude Longitude Course Direction KTS MPH feet Rate Location/Type
08:34AM 42.7558 -73.7097 82° East 136 157 1,900  Level Boston Center
08:35AM 42.7606 -73.6589 83° East 136 157 2,600 660 Climbing Boston Center
08:36AM 42.7633 -73.5994 86° East 140 161 3,300 660 Climbing Boston Center
08:37AM 42.7681 -73.5458 83° East 145 167 4,000 600 Climbing Boston Center
08:38AM 42.7728 -73.4922 83° East 143 165 4,600 540 Climbing Boston Center
08:39AM 42.7753 -73.4358 87° East 145 167 5,100 540 Climbing Boston Center
08:40AM 42.7800 -73.3792 84° East 150 173 5,700 540 Climbing Boston Center
08:41AM 42.7742 -73.3197 98° East 153 176 6,300 480 Climbing Boston Center
08:42AM 42.7642 -73.2686 105° East 158 182 6,700 300 Climbing Boston Center
08:43AM 42.7519 -73.2147 107° East 165 190 7,000 120 Climbing Boston Center
08:44AM 42.7381 -73.1383 104° East 165 190 7,000  Level Boston Center
08:45AM 42.7300 -73.0761 100° East 181 208 7,000  Level Boston Center
08:46AM 42.7158 -73.0053 105° East 181 208 7,000  Level Boston Center
08:47AM 42.7056 -72.9344 101° East 181 208 7,000  Level Boston Center
08:48AM 42.6933 -72.8694 104° East 181 208 7,000  Level Boston Center
08:49AM 42.6833 -72.8017 101° East 181 208 7,000  Level Boston Center
08:50AM 42.6689 -72.7339 106° East 181 208 7,000  Level Boston Center
08:51AM 42.6564 -72.6658 104° East 181 208 7,000  Level Boston Center
08:52AM 42.6442 -72.5981 104° East 181 208 7,000  Level Boston Center
08:53AM 42.6317 -72.5303 104° East 181 208 7,000  Level Boston Center
08:54AM 42.6233 -72.4739 101° East 181 208 7,000  Level Boston Center
08:55AM 42.6089 -72.3978 104° East 181 208 7,000  Level Boston Center
08:56AM 42.5964 -72.3300 104° East 181 208 7,000  Level Boston Center
08:57AM 42.5836 -72.2597 104° East 181 208 7,000  Level Boston Center
08:58AM 42.5711 -72.1892 104° East 181 208 7,000  Level Boston Center
08:59AM 42.5583 -72.1244 105° East 181 208 7,000  Level Boston Center
09:00AM 42.5456 -72.0569 104° East 181 208 7,000  Level Boston Center
09:01AM 42.5392 -71.9919 98° East 186 214 7,000  Level Boston Center
09:02AM 42.5325 -71.9189 97° East 181 208 7,000  Level Boston Center
09:03AM 42.5261 -71.8542 98° East 181 208 7,000  Level Boston Center
09:04AM 42.5214 -71.7781 95° East 181 208 7,000  Level Boston Center
09:05AM 42.5147 -71.7161 98° East 181 208 7,000  Level Boston Center
09:06AM 42.5081 -71.6403 97° East 181 208 7,000  Level Boston Center
09:07AM 42.5000 -71.5667 98° East 189 217 7,000 -300 Level KA90
09:08AM 42.5000 -71.5000 90° East 201 231 6,500 -420 Descending KA90
09:09AM 42.5167 -71.4167 75° East 199 229 6,200 -480 Descending KA90
09:10AM 42.5167 -71.3500 90° East 205 236 5,600 -660 Descending KA90
09:11AM 42.5167 -71.2833 90° East 204 235 5,100 -600 Descending KA90
09:12AM 42.5167 -71.2000 90° East 200 230 4,500 -540 Descending KA90
09:13AM 42.5333 -71.1333 71° East 197 227 4,100 -420 Descending KA90
09:14AM 42.5333 -71.0667 90° East 182 209 3,800 -660 Descending KA90
09:15AM 42.5000 -71.0167 132° Southeast 185 213 2,800 -960 Descending KA90
09:16AM 42.4500 -70.9667 144° Southeast 188 216 1,800 -1,020 Descending KA90
09:17AM 42.4000 -70.9833 194° South 153 176 500 -1,140 Descending KA90
09:19AM 42.3595 -70.9833 180° South  Level FlightAware Approximate
09:26AM 42.3500 -71.0000 270° West  Level FlightAware Approximate